Terminal Aerodrome Forecast
Issued by NWS Sterling, VA

Current Version | Previous Version | Graphics & Text | Print | Product List | Glossary On
Versions: 1 2 3 4 5 6 7 8 9 10 11 12 13 14 15 16 17 18 19 20 21 22 23 24 25
000
FTUS41 KLWX 221124
TAFIAD
TAF
KIAD 221124Z 2212/2318 00000KT P6SM FEW050 SCT130
     FM221600 27006KT P6SM SCT050 BKN110
     FM222000 22007KT P6SM BKN060
     FM230900 22007KT 5SM SHRA SCT015 OVC070
     FM231200 21007KT 5SM SHRA SCT015 OVC050
     FM231500 21009KT P6SM SCT015 OVC040=

USA.gov is the U.S. government's official web portal to all federal, state and local government web resources and services.